Time;durP1;ratioP1;P1;durP2;ratioP2;P2;SDS_P1;SDS_P2;PMS_P1;PMS_P2;Temp;Humidity;BMP_temperature;BMP_pressure;BME280_temperature;BME280_humidity;BME280_pressure;Samples;Min_cycle;Max_cycle;Signal;HPM_P1;HPM_P2
2023/06/20 00:01:17;;;;;;;21.00;13.50;;;24.30;61.80;;;;;;5075672;28;20424;-80
2023/06/20 00:03:46;;;;;;;21.10;14.77;;;24.30;61.70;;;;;;5075004;28;20470;-79
2023/06/20 00:06:14;;;;;;;18.23;13.80;;;24.30;61.40;;;;;;5075526;28;20456;-80
2023/06/20 00:08:42;;;;;;;19.33;15.20;;;24.30;61.90;;;;;;5071730;28;20457;-80
2023/06/20 00:11:10;;;;;;;18.00;13.37;;;24.30;61.30;;;;;;5079980;28;20465;-80
2023/06/20 00:13:42;;;;;;;19.87;13.90;;;24.10;62.10;;;;;;5074172;28;20465;-79
2023/06/20 00:16:10;;;;;;;19.10;14.20;;;24.10;62.40;;;;;;5075777;28;20436;-80
2023/06/20 00:18:38;;;;;;;22.40;14.50;;;24.00;62.80;;;;;;5074648;28;20957;-80
2023/06/20 00:21:07;;;;;;;23.93;14.30;;;24.10;62.40;;;;;;5077389;28;20407;-79
2023/06/20 00:23:35;;;;;;;17.33;13.17;;;24.10;62.60;;;;;;5073685;28;20482;-79
2023/06/20 00:26:03;;;;;;;18.73;12.67;;;24.10;62.60;;;;;;5068369;28;20560;-79
2023/06/20 00:28:31;;;;;;;21.53;13.57;;;24.00;62.40;;;;;;5075491;28;20460;-79
2023/06/20 00:30:59;;;;;;;27.20;14.63;;;23.90;62.90;;;;;;5076256;28;20465;-80
2023/06/20 00:33:27;;;;;;;34.50;15.17;;;23.90;62.80;;;;;;5066012;28;20503;-79
2023/06/20 00:35:54;;;;;;;19.80;13.13;;;23.90;63.10;;;;;;5073267;28;20451;-79
2023/06/20 00:38:29;;;;;;;25.30;16.00;;;24.00;63.00;;;;;;5072338;28;20486;-79
2023/06/20 00:40:57;;;;;;;21.47;13.90;;;24.00;63.10;;;;;;5076304;28;20472;-79
2023/06/20 00:43:25;;;;;;;20.23;14.00;;;24.10;62.70;;;;;;5064700;28;20535;-78
2023/06/20 00:45:53;;;;;;;19.60;13.60;;;24.10;62.20;;;;;;5066381;28;20476;-79
2023/06/20 00:48:22;;;;;;;24.20;13.90;;;24.10;62.70;;;;;;5070894;28;20510;-79
2023/06/20 00:50:51;;;;;;;21.37;14.00;;;24.10;62.10;;;;;;5070370;28;20429;-79
2023/06/20 00:53:20;;;;;;;20.17;13.90;;;23.90;62.80;;;;;;5071742;28;20470;-78
2023/06/20 00:55:49;;;;;;;18.93;13.53;;;23.90;63.20;;;;;;5071429;28;20495;-79
2023/06/20 00:58:17;;;;;;;16.90;12.97;;;23.90;63.60;;;;;;5065869;28;20528;-79
2023/06/20 01:00:45;;;;;;;16.83;12.23;;;23.90;63.50;;;;;;5061173;28;20424;-80
2023/06/20 01:03:14;;;;;;;17.83;13.87;;;23.90;63.10;;;;;;5072734;28;20444;-80
2023/06/20 01:05:43;;;;;;;24.17;16.13;;;23.90;62.90;;;;;;5072407;28;20440;-80
2023/06/20 01:08:15;;;;;;;20.40;13.10;;;24.00;62.50;;;;;;5072224;28;20504;-80
2023/06/20 01:10:55;;;;;;;17.40;12.90;;;23.90;63.20;;;;;;5072774;28;20455;-79
2023/06/20 01:13:26;;;;;;;15.33;13.20;;;24.00;63.40;;;;;;5072672;28;20484;-80
2023/06/20 01:15:57;;;;;;;19.93;13.60;;;24.10;62.60;;;;;;5071302;28;20517;-80
2023/06/20 01:18:36;;;;;;;20.00;14.30;;;24.00;62.50;;;;;;5060905;28;20459;-80
2023/06/20 01:21:08;;;;;;;22.20;13.50;;;24.00;62.90;;;;;;5073578;28;20475;-80
2023/06/20 01:23:42;;;;;;;19.10;13.10;;;23.90;62.70;;;;;;5071514;28;20465;-79
2023/06/20 01:26:11;;;;;;;16.07;12.87;;;23.70;62.80;;;;;;5064438;28;20443;-80
2023/06/20 01:28:41;;;;;;;17.03;12.43;;;23.80;63.70;;;;;;5072432;28;20526;-80
2023/06/20 01:31:10;;;;;;;16.10;12.60;;;23.80;63.30;;;;;;5080366;28;20472;-80
2023/06/20 01:33:43;;;;;;;18.50;12.83;;;23.80;63.30;;;;;;5072213;28;20439;-80
2023/06/20 01:36:11;;;;;;;18.13;12.80;;;23.90;63.00;;;;;;5071909;28;20515;-80
2023/06/20 01:38:40;;;;;;;17.20;12.07;;;23.90;62.90;;;;;;5067126;28;20518;-80
2023/06/20 01:41:08;;;;;;;14.20;11.47;;;23.90;62.80;;;;;;5071519;28;20450;-79
2023/06/20 01:43:36;;;;;;;19.23;12.30;;;24.00;62.90;;;;;;5068016;28;20468;-80
2023/06/20 01:46:05;;;;;;;16.00;12.47;;;23.90;62.80;;;;;;5067621;28;20564;-79
2023/06/20 01:48:34;;;;;;;14.47;11.57;;;23.90;62.60;;;;;;5064437;28;20416;-79
2023/06/20 01:51:02;;;;;;;17.13;11.63;;;23.80;62.80;;;;;;5081370;28;20444;-79
2023/06/20 01:53:30;;;;;;;17.07;12.23;;;23.80;63.30;;;;;;5073043;28;20464;-79
2023/06/20 01:56:03;;;;;;;22.10;12.87;;;23.60;63.40;;;;;;5069258;28;20445;-79
2023/06/20 01:58:31;;;;;;;18.00;12.27;;;23.70;63.80;;;;;;5066118;28;20443;-80
2023/06/20 02:01:00;;;;;;;18.50;14.20;;;23.80;64.10;;;;;;5080131;28;20452;-80
2023/06/20 02:03:28;;;;;;;16.37;13.70;;;23.70;64.10;;;;;;5075059;28;20465;-79
2023/06/20 02:05:57;;;;;;;21.27;14.50;;;23.80;63.70;;;;;;5075454;28;20451;-78
2023/06/20 02:08:25;;;;;;;17.63;13.33;;;23.90;64.00;;;;;;5084160;28;20455;-79
2023/06/20 02:10:53;;;;;;;19.33;14.03;;;23.90;64.00;;;;;;5076209;28;20475;-80
2023/06/20 02:13:22;;;;;;;23.53;15.03;;;23.80;64.60;;;;;;5065318;28;20543;-81
2023/06/20 02:15:52;;;;;;;21.87;15.13;;;23.90;64.20;;;;;;5075602;28;20424;-79
2023/06/20 02:18:20;;;;;;;18.50;13.80;;;23.90;64.50;;;;;;5076100;28;20461;-79
2023/06/20 02:20:50;;;;;;;23.90;15.17;;;24.00;64.10;;;;;;5076004;28;20441;-79
2023/06/20 02:23:18;;;;;;;21.03;13.77;;;23.90;64.50;;;;;;5071884;28;20976;-79
2023/06/20 02:25:47;;;;;;;20.80;14.57;;;23.90;64.80;;;;;;5078794;28;20463;-79
2023/06/20 02:28:15;;;;;;;18.80;14.03;;;23.90;64.30;;;;;;5077794;28;20525;-79
2023/06/20 02:30:45;;;;;;;18.27;14.00;;;23.80;64.40;;;;;;5067112;28;20485;-79
2023/06/20 02:33:13;;;;;;;21.00;15.13;;;23.60;65.00;;;;;;5074987;28;20445;-79
2023/06/20 02:35:41;;;;;;;22.83;15.30;;;23.60;65.50;;;;;;5083822;28;20444;-79
2023/06/20 02:38:10;;;;;;;22.57;16.43;;;23.50;65.90;;;;;;5075446;28;20941;-79
2023/06/20 02:40:38;;;;;;;22.83;16.43;;;23.60;66.50;;;;;;5069029;28;20471;-79
2023/06/20 02:43:08;;;;;;;22.80;14.83;;;23.70;66.00;;;;;;5084366;28;20460;-79
2023/06/20 02:45:36;;;;;;;22.23;16.17;;;23.70;65.70;;;;;;5074816;28;20452;-78
2023/06/20 02:48:12;;;;;;;22.73;15.90;;;23.80;65.60;;;;;;5069616;28;20561;-79
2023/06/20 02:50:45;;;;;;;24.93;17.23;;;23.70;66.20;;;;;;5065852;28;20456;-79
2023/06/20 02:53:19;;;;;;;22.30;16.60;;;23.70;65.70;;;;;;5072855;28;20475;-79
2023/06/20 02:55:51;;;;;;;23.90;16.03;;;23.70;66.00;;;;;;5075425;28;20420;-79
2023/06/20 02:58:19;;;;;;;26.30;17.30;;;23.70;66.10;;;;;;5074552;28;20495;-79
2023/06/20 03:00:52;;;;;;;22.10;16.17;;;23.70;67.10;;;;;;5080640;28;20450;-79
2023/06/20 03:03:23;;;;;;;21.30;15.80;;;23.60;66.00;;;;;;5076775;28;20446;-79
2023/06/20 03:05:56;;;;;;;22.87;16.17;;;23.60;66.20;;;;;;5066714;28;20478;-79
2023/06/20 03:08:25;;;;;;;29.60;17.47;;;23.70;66.70;;;;;;5080189;28;20528;-79
2023/06/20 03:10:54;;;;;;;21.73;15.40;;;23.70;65.60;;;;;;5078131;28;20481;-79
2023/06/20 03:13:22;;;;;;;24.00;15.90;;;23.60;66.10;;;;;;5078364;28;20488;-79
2023/06/20 03:15:50;;;;;;;23.53;16.07;;;23.70;65.90;;;;;;5078439;28;20477;-79
2023/06/20 03:18:19;;;;;;;24.97;16.57;;;23.70;65.70;;;;;;5077281;28;20548;-79
2023/06/20 03:20:48;;;;;;;22.80;16.53;;;23.70;66.10;;;;;;5073773;28;20460;-79
2023/06/20 03:23:17;;;;;;;35.30;23.60;;;23.60;66.00;;;;;;5068219;28;20495;-79
2023/06/20 03:25:46;;;;;;;36.60;25.87;;;23.80;65.90;;;;;;5091015;28;20453;-80
2023/06/20 03:28:14;;;;;;;25.63;16.80;;;23.80;65.40;;;;;;5079265;28;20500;-80
2023/06/20 03:30:42;;;;;;;20.27;15.30;;;23.60;65.60;;;;;;5085010;28;20466;-80
2023/06/20 03:33:10;;;;;;;22.03;15.43;;;23.60;65.60;;;;;;5078123;28;20476;-80
2023/06/20 03:35:39;;;;;;;19.50;15.33;;;23.70;65.40;;;;;;5084124;28;20480;-79
2023/06/20 03:38:08;;;;;;;23.37;15.47;;;23.60;65.40;;;;;;5073393;28;20517;-79
2023/06/20 03:40:36;;;;;;;22.43;15.47;;;23.70;65.60;;;;;;5071342;28;20473;-79
2023/06/20 03:43:04;;;;;;;24.63;16.60;;;23.80;65.00;;;;;;5072657;28;20494;-80
2023/06/20 03:45:32;;;;;;;28.83;16.40;;;23.70;65.40;;;;;;5069358;28;20442;-80
2023/06/20 03:48:00;;;;;;;22.67;16.20;;;23.90;65.40;;;;;;5077334;28;20471;-80
2023/06/20 03:50:28;;;;;;;23.63;16.40;;;23.70;65.00;;;;;;5077728;28;20424;-80
2023/06/20 03:52:56;;;;;;;23.03;16.17;;;23.70;65.10;;;;;;5083656;28;20473;-81
2023/06/20 03:55:26;;;;;;;22.30;15.80;;;23.80;65.40;;;;;;5065236;28;20461;-79
2023/06/20 03:57:55;;;;;;;28.20;16.90;;;23.70;65.60;;;;;;5073229;28;20486;-79
2023/06/20 04:00:23;;;;;;;27.73;15.83;;;23.70;65.30;;;;;;5073202;28;20420;-79
2023/06/20 04:02:52;;;;;;;25.53;17.20;;;23.80;65.60;;;;;;5072739;28;20507;-79
2023/06/20 04:05:20;;;;;;;21.73;16.77;;;23.70;65.70;;;;;;5065195;28;20468;-79
2023/06/20 04:07:48;;;;;;;24.23;17.23;;;23.80;65.10;;;;;;5079562;28;20565;-79
2023/06/20 04:10:16;;;;;;;23.37;16.53;;;23.90;65.60;;;;;;5073653;28;20413;-80
2023/06/20 04:12:45;;;;;;;22.00;16.53;;;23.80;65.30;;;;;;5063546;28;20544;-78
2023/06/20 04:15:13;;;;;;;22.73;16.33;;;23.80;65.30;;;;;;5066943;28;20469;-79
2023/06/20 04:17:41;;;;;;;28.83;16.60;;;23.80;65.60;;;;;;5075448;28;20405;-78
2023/06/20 04:20:13;;;;;;;21.03;14.90;;;23.90;65.60;;;;;;5068819;28;20444;-79
2023/06/20 04:22:44;;;;;;;26.37;16.17;;;23.80;65.30;;;;;;5080271;28;20428;-79
2023/06/20 04:25:13;;;;;;;22.23;15.70;;;23.80;65.30;;;;;;5081029;28;20420;-79
2023/06/20 04:27:42;;;;;;;26.20;16.87;;;23.90;65.30;;;;;;5072182;28;20465;-79
2023/06/20 04:30:12;;;;;;;26.23;16.63;;;24.10;64.80;;;;;;5064651;28;20425;-79
2023/06/20 04:32:41;;;;;;;26.30;15.70;;;24.10;65.10;;;;;;5073223;28;20544;-78
2023/06/20 04:35:10;;;;;;;24.80;15.50;;;24.20;64.80;;;;;;5071564;28;20438;-79
2023/06/20 04:37:38;;;;;;;22.87;16.10;;;24.20;65.60;;;;;;5069348;28;20459;-78
2023/06/20 04:40:10;;;;;;;25.83;15.37;;;24.20;64.70;;;;;;5071855;28;20529;-79
2023/06/20 04:42:38;;;;;;;27.17;14.73;;;24.30;64.90;;;;;;5070514;28;20484;-79
2023/06/20 04:45:07;;;;;;;24.27;14.50;;;24.30;65.20;;;;;;5072054;28;20436;-79
2023/06/20 04:47:37;;;;;;;20.83;13.60;;;24.30;65.10;;;;;;5072068;28;21005;-80
2023/06/20 04:50:06;;;;;;;23.03;14.60;;;24.20;64.30;;;;;;5074215;28;20420;-79
2023/06/20 04:52:34;;;;;;;22.73;14.23;;;24.30;64.90;;;;;;5067726;28;20432;-79
2023/06/20 04:55:03;;;;;;;20.70;12.73;;;24.40;63.40;;;;;;5065189;28;20440;-79
2023/06/20 04:57:31;;;;;;;19.10;13.27;;;24.30;63.60;;;;;;5072473;28;20438;-79
2023/06/20 04:59:59;;;;;;;20.00;13.07;;;24.30;63.20;;;;;;5072409;28;20416;-79
2023/06/20 05:02:28;;;;;;;23.70;14.07;;;24.30;63.20;;;;;;5070921;28;20508;-78
2023/06/20 05:04:58;;;;;;;21.77;13.40;;;24.50;63.70;;;;;;5067073;28;20469;-79
2023/06/20 05:07:25;;;;;;;24.93;13.50;;;24.50;62.30;;;;;;5062962;28;20450;-78
2023/06/20 05:09:54;;;;;;;17.80;12.60;;;24.50;61.90;;;;;;5066587;28;20464;-79
2023/06/20 05:12:22;;;;;;;19.77;13.90;;;24.60;62.30;;;;;;5072132;28;20424;-80
2023/06/20 05:14:50;;;;;;;14.90;11.87;;;24.70;62.30;;;;;;5074569;28;20463;-79
2023/06/20 05:17:17;;;;;;;18.43;14.50;;;24.70;61.10;;;;;;5074507;28;20480;-79
2023/06/20 05:19:46;;;;;;;17.53;12.03;;;24.60;61.30;;;;;;5071991;28;20441;-78
2023/06/20 05:22:15;;;;;;;19.63;13.27;;;24.60;61.20;;;;;;5068865;28;20445;-79
2023/06/20 05:24:43;;;;;;;15.60;12.67;;;24.70;61.00;;;;;;5080082;28;20538;-78
2023/06/20 05:27:11;;;;;;;19.30;15.80;;;24.80;60.80;;;;;;5073188;28;20491;-78
2023/06/20 05:29:39;;;;;;;20.80;14.50;;;24.80;60.80;;;;;;5072616;28;20527;-78
2023/06/20 05:32:07;;;;;;;18.87;14.03;;;24.80;60.20;;;;;;5072114;28;20489;-78
2023/06/20 05:34:35;;;;;;;18.33;13.83;;;24.80;60.50;;;;;;5075330;28;20528;-78
2023/06/20 05:37:04;;;;;;;22.67;14.33;;;25.00;60.00;;;;;;5073166;28;20482;-77
2023/06/20 05:39:33;;;;;;;21.77;14.33;;;25.00;59.70;;;;;;5064252;28;20448;-79
2023/06/20 05:42:01;;;;;;;18.80;14.60;;;24.80;59.80;;;;;;5077899;28;20408;-79
2023/06/20 05:44:29;;;;;;;19.53;13.20;;;25.00;60.40;;;;;;5074809;28;20440;-78
2023/06/20 05:46:58;;;;;;;30.43;20.20;;;25.10;60.70;;;;;;5083979;28;20469;-78
2023/06/20 05:49:27;;;;;;;23.47;15.17;;;25.00;60.60;;;;;;5075924;28;20501;-79
2023/06/20 05:51:55;;;;;;;18.93;13.30;;;25.10;60.50;;;;;;5070639;28;20471;-79
2023/06/20 05:54:23;;;;;;;24.30;15.87;;;25.00;60.40;;;;;;5067498;28;20474;-79
2023/06/20 05:56:55;;;;;;;26.03;15.97;;;25.20;60.40;;;;;;5079696;28;20528;-79
2023/06/20 05:59:23;;;;;;;19.43;14.67;;;25.30;60.10;;;;;;5075887;28;20426;-79
2023/06/20 06:01:51;;;;;;;42.00;26.60;;;25.40;59.90;;;;;;5075802;28;20437;-79
2023/06/20 06:04:18;;;;;;;27.90;17.47;;;25.40;59.70;;;;;;5074656;28;20452;-79
2023/06/20 06:06:46;;;;;;;22.43;14.83;;;25.50;59.50;;;;;;5083189;28;20812;-79
2023/06/20 06:09:15;;;;;;;20.27;14.20;;;25.50;59.20;;;;;;5076382;28;20444;-79
2023/06/20 06:11:43;;;;;;;22.67;14.80;;;25.50;59.50;;;;;;5073376;28;20461;-80
2023/06/20 06:14:12;;;;;;;25.53;14.43;;;25.50;59.40;;;;;;5083122;28;20507;-79
2023/06/20 06:16:40;;;;;;;19.70;14.23;;;25.40;59.30;;;;;;5079188;28;20439;-79
2023/06/20 06:19:08;;;;;;;22.17;14.27;;;25.60;59.50;;;;;;5079312;28;20541;-80
2023/06/20 06:21:36;;;;;;;22.67;14.27;;;25.60;59.10;;;;;;5078665;28;20488;-79
2023/06/20 06:24:06;;;;;;;21.40;13.60;;;25.80;59.30;;;;;;5085115;28;20547;-80
2023/06/20 06:26:36;;;;;;;19.30;13.43;;;25.90;59.20;;;;;;5073207;28;20475;-80
2023/06/20 06:29:05;;;;;;;27.13;14.27;;;26.10;58.80;;;;;;5070359;28;20462;-80
2023/06/20 06:31:35;;;;;;;18.00;13.20;;;26.10;58.40;;;;;;5068680;28;20480;-79
2023/06/20 06:34:03;;;;;;;20.13;13.80;;;26.10;58.60;;;;;;5078812;28;20436;-80
2023/06/20 06:36:32;;;;;;;19.67;13.30;;;26.20;58.50;;;;;;5084504;28;20437;-80
2023/06/20 06:38:59;;;;;;;24.77;13.90;;;26.40;58.90;;;;;;5082350;28;20400;-79
2023/06/20 06:41:27;;;;;;;17.27;12.60;;;26.60;58.20;;;;;;5079795;28;20409;-80
2023/06/20 06:43:55;;;;;;;22.97;12.80;;;26.60;58.30;;;;;;5078946;28;20477;-80
2023/06/20 06:46:23;;;;;;;21.53;13.80;;;26.70;57.80;;;;;;5077555;28;20479;-80
2023/06/20 06:48:52;;;;;;;26.83;14.77;;;26.90;57.80;;;;;;5077871;28;20495;-80
2023/06/20 06:51:21;;;;;;;17.97;13.67;;;26.70;57.20;;;;;;5080326;28;20507;-79
2023/06/20 06:53:49;;;;;;;17.13;12.57;;;26.70;57.80;;;;;;5069456;28;20549;-79
2023/06/20 06:56:17;;;;;;;19.77;12.03;;;26.80;58.10;;;;;;5070766;28;20502;-80
2023/06/20 06:58:45;;;;;;;17.90;12.20;;;26.80;58.20;;;;;;5077222;28;20538;-80
2023/06/20 07:01:13;;;;;;;21.00;12.63;;;26.90;58.20;;;;;;5074048;28;20455;-79
2023/06/20 07:03:41;;;;;;;17.73;12.00;;;26.80;58.20;;;;;;5065327;28;20517;-79
2023/06/20 07:06:11;;;;;;;20.87;14.10;;;26.90;57.90;;;;;;5068298;28;20426;-79
2023/06/20 07:08:39;;;;;;;17.13;12.83;;;26.80;58.00;;;;;;5069545;28;20460;-79
2023/06/20 07:11:07;;;;;;;18.20;12.97;;;26.80;58.10;;;;;;5064291;28;20445;-79
2023/06/20 07:13:36;;;;;;;22.37;14.00;;;26.90;58.20;;;;;;5069034;28;20532;-80
2023/06/20 07:16:04;;;;;;;17.07;12.40;;;26.90;57.80;;;;;;5066056;28;20421;-80
2023/06/20 07:18:32;;;;;;;18.70;12.53;;;27.00;58.30;;;;;;5064119;28;20466;-80
2023/06/20 07:21:00;;;;;;;15.47;12.40;;;27.00;58.10;;;;;;5074995;28;20502;-79
2023/06/20 07:23:32;;;;;;;26.57;16.13;;;26.90;58.20;;;;;;5070398;28;20550;-79
2023/06/20 07:26:00;;;;;;;25.47;19.03;;;26.90;58.50;;;;;;5060389;28;20414;-80
2023/06/20 07:28:28;;;;;;;22.00;14.83;;;27.00;58.30;;;;;;5058841;28;20401;-80
2023/06/20 07:30:57;;;;;;;21.17;15.07;;;27.00;58.40;;;;;;5058264;28;20473;-79
2023/06/20 07:33:25;;;;;;;21.07;14.17;;;27.10;57.90;;;;;;5077254;28;20471;-80
2023/06/20 07:35:53;;;;;;;16.87;13.23;;;27.00;58.80;;;;;;5074137;28;20459;-80
2023/06/20 07:38:22;;;;;;;16.47;13.70;;;27.00;58.70;;;;;;5077850;28;20450;-80
2023/06/20 07:40:51;;;;;;;20.80;14.27;;;26.70;59.40;;;;;;5066955;28;20452;-79
2023/06/20 07:43:20;;;;;;;15.53;11.97;;;26.80;59.60;;;;;;5072890;28;20511;-78
2023/06/20 07:45:48;;;;;;;28.80;20.97;;;27.10;59.60;;;;;;5061837;28;20473;-78
2023/06/20 07:48:16;;;;;;;23.73;16.13;;;27.30;58.90;;;;;;5059763;28;20446;-80
2023/06/20 07:50:44;;;;;;;20.80;13.50;;;27.50;58.70;;;;;;5076302;28;20532;-79
2023/06/20 07:53:13;;;;;;;17.80;14.00;;;27.70;58.30;;;;;;5072570;28;20487;-80
2023/06/20 07:55:41;;;;;;;19.17;12.63;;;27.70;58.10;;;;;;5068216;28;20440;-80
2023/06/20 07:58:12;;;;;;;16.80;12.73;;;27.80;58.20;;;;;;5077248;28;20504;-78
2023/06/20 08:00:40;;;;;;;16.93;12.70;;;27.90;57.80;;;;;;5076037;28;20458;-78
2023/06/20 08:03:08;;;;;;;17.87;12.27;;;27.90;58.20;;;;;;5063872;28;20504;-78
2023/06/20 08:05:36;;;;;;;17.57;11.63;;;27.90;58.40;;;;;;5062153;28;20409;-78
2023/06/20 08:08:04;;;;;;;18.03;11.97;;;28.00;58.40;;;;;;5053983;28;20457;-78
2023/06/20 08:10:32;;;;;;;23.80;13.20;;;28.10;57.90;;;;;;5063213;28;20528;-78
2023/06/20 08:13:00;;;;;;;25.03;17.23;;;28.10;57.90;;;;;;5057461;28;20472;-77
2023/06/20 08:15:29;;;;;;;26.47;16.90;;;28.10;58.70;;;;;;5071056;28;20444;-78
2023/06/20 08:17:57;;;;;;;16.20;12.90;;;28.10;59.00;;;;;;5057486;28;20464;-78
2023/06/20 08:20:25;;;;;;;19.00;13.27;;;28.00;59.60;;;;;;5066910;28;20457;-77
2023/06/20 08:22:52;;;;;;;18.03;14.47;;;28.10;59.30;;;;;;5068692;28;20530;-78
2023/06/20 08:25:20;;;;;;;20.80;14.30;;;28.10;59.30;;;;;;5063592;28;20470;-78
2023/06/20 08:27:48;;;;;;;16.50;13.17;;;28.20;59.20;;;;;;5055453;28;20417;-79
2023/06/20 08:30:34;;;;;;;14.20;11.57;;;28.20;59.20;;;;;;5065170;28;20474;-78
2023/06/20 08:33:02;;;;;;;19.83;13.30;;;28.20;59.00;;;;;;5059802;28;20410;-79
2023/06/20 08:35:30;;;;;;;19.57;12.87;;;28.20;59.40;;;;;;5058598;28;20413;-80
2023/06/20 08:37:58;;;;;;;16.00;12.53;;;28.20;59.30;;;;;;5061296;28;20469;-79
2023/06/20 08:40:26;;;;;;;26.57;17.53;;;28.20;59.90;;;;;;5060257;28;20540;-79
2023/06/20 08:42:56;;;;;;;23.13;16.13;;;28.20;59.70;;;;;;5057675;28;20446;-80
2023/06/20 08:45:24;;;;;;;15.37;13.50;;;28.30;59.60;;;;;;5062809;28;20444;-80
2023/06/20 08:47:58;;;;;;;19.63;14.17;;;28.30;59.70;;;;;;5056729;28;20508;-79
2023/06/20 08:50:27;;;;;;;15.37;13.43;;;28.40;60.50;;;;;;5063201;28;20465;-79
2023/06/20 08:52:57;;;;;;;20.60;13.70;;;28.40;60.30;;;;;;5067820;28;20449;-79
2023/06/20 08:55:25;;;;;;;16.83;12.60;;;28.40;60.20;;;;;;5068184;28;20405;-79
2023/06/20 08:57:53;;;;;;;15.70;12.10;;;28.50;59.90;;;;;;5074342;28;20430;-79
2023/06/20 09:00:21;;;;;;;14.73;11.47;;;28.50;60.40;;;;;;5058405;28;20434;-79
2023/06/20 09:02:49;;;;;;;15.57;12.60;;;28.60;59.60;;;;;;5072859;28;20445;-79
2023/06/20 09:05:19;;;;;;;19.60;12.43;;;28.60;59.60;;;;;;5062655;28;20462;-78
2023/06/20 09:07:47;;;;;;;14.00;11.80;;;28.60;59.60;;;;;;5063070;28;20427;-79
2023/06/20 09:10:19;;;;;;;19.50;12.50;;;28.60;59.40;;;;;;5064486;28;20492;-79
2023/06/20 09:12:48;;;;;;;13.90;12.50;;;28.50;59.10;;;;;;5065332;28;20431;-78
2023/06/20 09:15:17;;;;;;;28.37;21.60;;;28.50;59.70;;;;;;5079239;28;20418;-78
2023/06/20 09:17:45;;;;;;;21.00;14.77;;;28.30;60.00;;;;;;5071779;28;20445;-77
2023/06/20 09:20:14;;;;;;;22.00;15.20;;;28.20;61.00;;;;;;5065201;28;20475;-78
2023/06/20 09:22:44;;;;;;;18.27;14.60;;;28.30;60.80;;;;;;5083646;28;20437;-78
2023/06/20 09:25:13;;;;;;;15.90;13.73;;;28.20;60.30;;;;;;5079758;28;20445;-78
2023/06/20 09:27:42;;;;;;;17.10;13.63;;;28.10;60.90;;;;;;5076496;28;20436;-79
2023/06/20 09:30:11;;;;;;;19.30;14.30;;;28.20;60.90;;;;;;5069777;28;20451;-78
2023/06/20 09:32:40;;;;;;;17.63;13.80;;;28.10;61.00;;;;;;5066750;28;20424;-79
2023/06/20 09:35:12;;;;;;;15.70;12.50;;;28.20;61.70;;;;;;5078961;28;20505;-79
2023/06/20 09:37:40;;;;;;;15.50;13.37;;;28.30;61.10;;;;;;5068263;28;20455;-79
2023/06/20 09:40:11;;;;;;;15.90;13.73;;;28.40;61.20;;;;;;5065690;28;20449;-80
2023/06/20 09:42:39;;;;;;;15.60;13.40;;;28.50;60.60;;;;;;5056314;28;20478;-79
2023/06/20 09:45:08;;;;;;;16.13;13.70;;;28.60;60.20;;;;;;5064783;28;20493;-78
2023/06/20 09:47:37;;;;;;;16.80;13.97;;;28.60;60.00;;;;;;5058849;28;20450;-78
2023/06/20 09:50:06;;;;;;;17.67;15.30;;;28.60;59.80;;;;;;5055531;28;20952;-78
2023/06/20 09:52:38;;;;;;;15.23;13.57;;;28.60;59.40;;;;;;5060932;28;20481;-78
2023/06/20 09:55:11;;;;;;;21.73;15.30;;;28.60;59.80;;;;;;5056387;28;20549;-78
2023/06/20 09:57:42;;;;;;;15.03;13.47;;;28.60;60.00;;;;;;5076064;28;20437;-78
2023/06/20 10:00:13;;;;;;;17.20;15.00;;;28.50;60.00;;;;;;5058668;28;20496;-78
2023/06/20 10:02:44;;;;;;;16.97;12.93;;;28.50;60.60;;;;;;5060951;28;20429;-77
2023/06/20 10:05:13;;;;;;;13.90;12.03;;;28.60;60.40;;;;;;5069494;28;20436;-78
2023/06/20 10:07:42;;;;;;;13.70;12.30;;;28.70;60.30;;;;;;5067207;28;20466;-78
2023/06/20 10:10:11;;;;;;;13.67;12.23;;;28.70;59.80;;;;;;5063221;28;20504;-78
2023/06/20 10:12:40;;;;;;;15.67;14.07;;;28.80;59.60;;;;;;5076363;28;21008;-78
2023/06/20 10:15:14;;;;;;;15.90;13.20;;;28.80;59.40;;;;;;5064679;28;20471;-79
2023/06/20 10:17:43;;;;;;;13.33;11.90;;;28.70;59.10;;;;;;5073917;28;20414;-78
2023/06/20 10:20:25;;;;;;;14.03;12.63;;;28.70;59.70;;;;;;5060548;28;20458;-79
2023/06/20 10:22:57;;;;;;;14.10;12.70;;;28.70;59.20;;;;;;5077177;28;20912;-78
2023/06/20 10:25:28;;;;;;;17.57;13.80;;;28.70;59.50;;;;;;5074584;28;20470;-79
2023/06/20 10:27:57;;;;;;;13.97;12.20;;;28.70;59.50;;;;;;5065484;28;20474;-79
2023/06/20 10:30:57;;;;;;;15.97;11.87;;;28.80;59.80;;;;;;5073489;28;20443;-77
2023/06/20 10:33:26;;;;;;;15.10;13.47;;;28.80;59.60;;;;;;5077545;28;20865;-77
2023/06/20 10:35:55;;;;;;;14.90;12.10;;;28.90;59.60;;;;;;5069852;28;20466;-78
2023/06/20 10:38:23;;;;;;;16.47;12.90;;;28.90;59.60;;;;;;5068692;28;20480;-78
2023/06/20 10:41:10;;;;;;;13.37;11.80;;;28.80;59.40;;;;;;5075281;28;20527;-78
2023/06/20 10:43:52;;;;;;;16.40;13.10;;;28.90;60.00;;;;;;5065303;28;20444;-78
2023/06/20 10:46:22;;;;;;;17.37;13.10;;;28.90;59.90;;;;;;5073296;28;20449;-79
2023/06/20 10:48:50;;;;;;;16.37;13.27;;;28.90;60.00;;;;;;5078339;28;20484;-78
2023/06/20 10:51:18;;;;;;;14.60;12.13;;;28.90;60.00;;;;;;5079559;28;20568;-78
2023/06/20 10:53:46;;;;;;;19.80;13.87;;;29.00;60.10;;;;;;5081953;28;20432;-78
2023/06/20 10:56:26;;;;;;;14.17;12.43;;;29.00;59.60;;;;;;5084011;28;20454;-77
2023/06/20 10:58:54;;;;;;;13.87;12.57;;;29.00;60.00;;;;;;5061710;28;20503;-78
2023/06/20 11:01:26;;;;;;;14.87;12.73;;;29.10;60.10;;;;;;5069752;28;20515;-78
2023/06/20 11:03:54;;;;;;;13.50;12.00;;;29.10;59.30;;;;;;5064870;28;20453;-77
2023/06/20 11:06:22;;;;;;;19.57;12.03;;;29.10;60.00;;;;;;5065591;28;20426;-77
2023/06/20 11:08:50;;;;;;;13.83;12.43;;;29.10;59.70;;;;;;5060245;28;20468;-77
2023/06/20 11:11:18;;;;;;;14.27;12.87;;;29.20;59.70;;;;;;5067013;28;20466;-78
2023/06/20 11:13:47;;;;;;;14.20;12.30;;;29.20;59.50;;;;;;5077075;28;20493;-77
2023/06/20 11:16:19;;;;;;;13.47;12.27;;;29.20;59.60;;;;;;5059982;28;20413;-78
2023/06/20 11:18:46;;;;;;;12.33;11.03;;;29.40;59.50;;;;;;5067603;28;20473;-77
2023/06/20 11:21:16;;;;;;;13.60;12.30;;;29.50;59.90;;;;;;5068693;28;20433;-78
2023/06/20 11:23:43;;;;;;;12.57;11.37;;;29.60;59.40;;;;;;5067150;28;20464;-79
2023/06/20 11:26:12;;;;;;;14.03;12.20;;;29.80;59.20;;;;;;5058721;28;20453;-79
2023/06/20 11:28:40;;;;;;;12.37;11.10;;;29.90;58.80;;;;;;5068641;28;20442;-78
2023/06/20 11:31:13;;;;;;;12.60;11.30;;;30.00;58.20;;;;;;5060448;28;20477;-79
2023/06/20 11:33:42;;;;;;;13.10;11.90;;;30.00;58.00;;;;;;5058512;28;20516;-77
2023/06/20 11:36:10;;;;;;;15.10;13.47;;;30.00;58.00;;;;;;5062772;28;20421;-78
2023/06/20 11:38:40;;;;;;;14.97;12.70;;;30.10;58.40;;;;;;5065059;28;20487;-77
2023/06/20 11:41:09;;;;;;;13.07;11.77;;;30.00;59.70;;;;;;5068100;28;20444;-78
2023/06/20 11:43:38;;;;;;;16.53;14.80;;;30.20;58.90;;;;;;5067718;28;20454;-78
2023/06/20 11:46:07;;;;;;;15.67;14.27;;;30.20;58.10;;;;;;5060713;28;20450;-78
2023/06/20 11:48:37;;;;;;;13.07;11.83;;;30.20;58.30;;;;;;5075218;28;20584;-78
2023/06/20 11:51:05;;;;;;;14.37;12.87;;;30.10;59.40;;;;;;5054241;28;20450;-77
2023/06/20 11:53:35;;;;;;;15.73;14.13;;;30.20;58.60;;;;;;5074646;28;20931;-78
2023/06/20 11:56:04;;;;;;;14.20;12.60;;;30.30;58.40;;;;;;5065485;28;20454;-77
2023/06/20 11:58:40;;;;;;;22.07;11.57;;;30.40;57.70;;;;;;5064865;28;20541;-77
2023/06/20 12:01:10;;;;;;;12.20;10.90;;;30.40;57.70;;;;;;5062767;28;20431;-78
2023/06/20 12:03:41;;;;;;;15.30;10.57;;;30.40;57.20;;;;;;5060012;28;20431;-78
2023/06/20 12:06:28;;;;;;;12.43;11.33;;;30.50;56.80;;;;;;5069809;28;20441;-78
2023/06/20 12:08:57;;;;;;;13.50;12.20;;;30.60;56.80;;;;;;5058059;28;20491;-78
2023/06/20 12:11:25;;;;;;;12.83;11.47;;;30.60;57.00;;;;;;5075608;28;20473;-78
2023/06/20 12:13:53;;;;;;;12.87;11.57;;;30.60;56.90;;;;;;5069520;28;20517;-78
2023/06/20 12:16:21;;;;;;;12.60;10.97;;;30.70;56.40;;;;;;5072486;28;20598;-78
2023/06/20 12:18:57;;;;;;;12.37;11.20;;;30.80;56.40;;;;;;5077910;28;20484;-78
2023/06/20 12:21:25;;;;;;;12.77;11.47;;;30.90;56.20;;;;;;5072577;28;20518;-78
2023/06/20 12:23:54;;;;;;;11.77;10.77;;;31.00;55.90;;;;;;5069688;28;20553;-78
2023/06/20 12:26:22;;;;;;;11.57;10.10;;;31.00;55.70;;;;;;5069623;28;20516;-78
2023/06/20 12:28:51;;;;;;;12.17;11.10;;;31.00;55.80;;;;;;5066192;28;20458;-78
2023/06/20 12:31:19;;;;;;;12.30;11.17;;;31.00;56.30;;;;;;5075086;28;20449;-78
2023/06/20 12:33:47;;;;;;;12.27;11.20;;;31.00;56.10;;;;;;5073504;28;20499;-78
2023/06/20 12:36:17;;;;;;;10.60;9.80;;;31.00;55.70;;;;;;5067623;28;20473;-78
2023/06/20 12:38:45;;;;;;;11.27;10.13;;;31.00;55.80;;;;;;5072974;28;20488;-77